Terminal Aerodrome Forecast
Issued by NWS

Home | Current Version | Previous Version | Graphics & Text | Print | Product List | Glossary On
Versions: 1 2 3 4 5 6 7 8 9 10 11 12 13 14 15 16 17 18 19 20
663
FTUS43 KOAX 221530 AAA
TAFCDR
TAF AMD
KCDR 221530Z 2216/2312 30011KT P6SM BKN150
     FM230300 04006KT P6SM OVC100
     FM230600 05009KT P6SM VCSH OVC015=

USA.gov is the U.S. government's official web portal to all federal, state and local government web resources and services.